createdAt,value
2023-05-10T00:03:56.063Z,3820.3
2023-05-10T00:09:33.558Z,3821.2
2023-05-10T00:15:10.159Z,3818.7
2023-05-10T00:20:46.064Z,3818.7
2023-05-10T00:26:21.392Z,3816.5
2023-05-10T00:31:57.925Z,3821
2023-05-10T00:37:33.996Z,3817.3
2023-05-10T00:43:11.695Z,3818.8
2023-05-10T00:48:46.952Z,3818.5
2023-05-10T00:54:22.844Z,3818.5
2023-05-10T01:00:01.249Z,3819
2023-05-10T01:05:36.559Z,3818.8
2023-05-10T01:11:13.778Z,3814.5
2023-05-10T01:16:49.020Z,3815.1
2023-05-10T01:22:25.126Z,3813.5
2023-05-10T01:28:01.499Z,3815.1
2023-05-10T01:33:37.766Z,3818.2
2023-05-10T01:39:13.564Z,3814.8
2023-05-10T01:44:54.291Z,3815
2023-05-10T01:50:31.042Z,3813.8
2023-05-10T01:56:07.583Z,3815.3
2023-05-10T02:01:45.674Z,3814.8
2023-05-10T02:12:57.529Z,3812.6
2023-05-10T02:18:33.318Z,3814.5
2023-05-10T02:24:12.952Z,3813.6
2023-05-10T02:29:50.381Z,3815.3
2023-05-10T02:35:25.892Z,3810
2023-05-10T02:41:01.917Z,3813.5
2023-05-10T02:46:38.129Z,3812
2023-05-10T02:52:14.407Z,3812.3
2023-05-10T02:57:49.484Z,3813.6
2023-05-10T03:03:25.509Z,3811.3
2023-05-10T03:09:01.752Z,3814.6
2023-05-10T03:14:38.411Z,3811.6
2023-05-10T03:20:18.613Z,3812
2023-05-10T03:25:54.903Z,3813.5
2023-05-10T03:31:30.721Z,3810.8
2023-05-10T03:37:07.054Z,3811.8
2023-05-10T03:42:45.630Z,3809.8
2023-05-10T03:48:22.273Z,3811.3
2023-05-10T03:53:58.104Z,3810.6
2023-05-10T03:59:35.075Z,3811.6
2023-05-10T04:05:10.712Z,3812
2023-05-10T04:10:46.597Z,3808.8
2023-05-10T04:16:22.621Z,3810
2023-05-10T04:22:01.245Z,3810
2023-05-10T04:27:37.306Z,3808.3
2023-05-10T04:33:12.694Z,3810.3
2023-05-10T04:38:48.543Z,3808.6
2023-05-10T04:44:24.041Z,3809.5
2023-05-10T04:50:00.753Z,3810.3
2023-05-10T04:55:37.111Z,3807.4
2023-05-10T05:01:12.886Z,3803.6
2023-05-10T05:06:48.687Z,3803.4
2023-05-10T05:12:23.586Z,3805.1
2023-05-10T05:17:59.596Z,3803.4
2023-05-10T05:23:35.585Z,3790.4
2023-05-10T05:29:12.365Z,3798.9
2023-05-10T05:34:47.757Z,3799.1
2023-05-10T05:40:24.245Z,3797.9
2023-05-10T05:46:02.382Z,3795
2023-05-10T05:51:37.803Z,3796.2
2023-05-10T05:57:18.230Z,3794.2
2023-05-10T06:02:55.074Z,3798.7
2023-05-10T06:08:42.053Z,3802.3
2023-05-10T06:14:19.070Z,3799.1
2023-05-10T06:19:56.153Z,3796.2
2023-05-10T06:25:34.481Z,3800.9
2023-05-10T06:31:13.909Z,3801.6
2023-05-10T06:36:51.052Z,3802.1
2023-05-10T06:42:28.058Z,3808.3
2023-05-10T06:48:05.934Z,3811.6
2023-05-10T06:53:41.549Z,3822
2023-05-10T06:59:17.374Z,3814.3
2023-05-10T07:04:55.988Z,3805.6
2023-05-10T07:10:31.946Z,3803.6
2023-05-10T07:16:11.693Z,3812.3
2023-05-10T07:21:47.840Z,3821.8
2023-05-10T07:27:23.302Z,3835.9
2023-05-10T07:32:58.768Z,3858.9
2023-05-10T07:38:35.167Z,3860.9
2023-05-10T07:44:11.408Z,3862.9
2023-05-10T07:49:49.343Z,3876.3
2023-05-10T07:55:25.751Z,3937.3
2023-05-10T08:01:01.450Z,3908.3
2023-05-10T08:06:38.015Z,3890.7
2023-05-10T08:12:13.499Z,3948.5
2023-05-10T08:17:49.903Z,3985.8
2023-05-10T08:23:25.578Z,3978.6
2023-05-10T08:29:01.422Z,3900.1
2023-05-10T08:34:37.778Z,3906.9
2023-05-10T08:40:14.040Z,3903.8
2023-05-10T08:45:54.310Z,3979.1
2023-05-10T08:51:30.800Z,3949.3
2023-05-10T08:57:06.122Z,4022
2023-05-10T09:02:42.532Z,4050.8
2023-05-10T09:08:19.389Z,4054.7
2023-05-10T09:13:58.830Z,3926.5
2023-05-10T09:19:37.866Z,3931.9
2023-05-10T09:25:13.164Z,3923.9
2023-05-10T09:30:48.748Z,3937.8
2023-05-10T09:36:24.271Z,4008.8
2023-05-10T09:41:59.849Z,4014.8
2023-05-10T09:47:36.384Z,4054.2
2023-05-10T09:53:12.480Z,4093
2023-05-10T09:58:48.244Z,4030.6
2023-05-10T10:04:25.283Z,4042.8
2023-05-10T10:10:01.043Z,4079.3
2023-05-10T10:15:40.404Z,4091
2023-05-10T10:21:18.111Z,4087.2
2023-05-10T10:27:00.890Z,4104.4
2023-05-10T10:32:37.083Z,4130
2023-05-10T10:38:13.412Z,4135.4
2023-05-10T10:43:49.600Z,4142.1
2023-05-10T10:49:25.580Z,4095.5
2023-05-10T10:55:00.036Z,4116.1
2023-05-10T11:00:37.632Z,4139.8
2023-05-10T11:06:13.519Z,4167.6
2023-05-10T11:11:50.822Z,4173.4
2023-05-10T11:17:31.030Z,4181.1
2023-05-10T11:23:07.140Z,4187.5
2023-05-10T11:28:44.974Z,4195.4
2023-05-10T11:34:20.747Z,4199.1
2023-05-10T11:39:57.521Z,4199.6
2023-05-10T11:45:33.786Z,4199.9
2023-05-10T11:51:09.682Z,4202.1
2023-05-10T11:56:48.626Z,4201.9
2023-05-10T12:02:29.472Z,4192.4
2023-05-10T12:08:06.424Z,4204.4
2023-05-10T12:13:44.010Z,4203.9
2023-05-10T12:19:21.317Z,4203.7
2023-05-10T12:24:57.545Z,4187.7
2023-05-10T12:30:32.331Z,4126.7
2023-05-10T12:36:06.676Z,4109.3
2023-05-10T12:41:45.050Z,4125.9
2023-05-10T12:47:19.725Z,4136.6
2023-05-10T12:52:54.789Z,4208.3
2023-05-10T12:58:37.921Z,4211.1
2023-05-10T13:04:27.636Z,4210.3
2023-05-10T13:10:03.230Z,4207.9
2023-05-10T13:15:39.640Z,4161.4
2023-05-10T13:21:14.618Z,4142.1
2023-05-10T13:26:49.698Z,4137.1
2023-05-10T13:32:25.260Z,4131.7
2023-05-10T13:38:00.703Z,4142.3
2023-05-10T13:43:36.853Z,4197.9
2023-05-10T13:49:12.517Z,4218.3
2023-05-10T13:54:48.370Z,4219.3
2023-05-10T14:00:23.720Z,4171.3
2023-05-10T14:06:00.933Z,4147
2023-05-10T14:11:35.968Z,4137.1
2023-05-10T14:17:13.448Z,4164.6
2023-05-10T14:22:49.076Z,4195
2023-05-10T14:28:25.140Z,4225
2023-05-10T14:34:02.499Z,4220.8
2023-05-10T14:39:38.630Z,4221.2
2023-05-10T14:45:17.464Z,4197
2023-05-10T14:50:52.956Z,4220
2023-05-10T14:56:28.641Z,4223.2
2023-05-10T15:02:06.851Z,4198.4
2023-05-10T15:07:42.533Z,4220.7
2023-05-10T15:13:17.734Z,4199.1
2023-05-10T15:18:53.951Z,4216.6
2023-05-10T15:24:30.018Z,4215.6
2023-05-10T15:30:24.998Z,4213.6
2023-05-10T15:36:00.383Z,4209.1
2023-05-10T15:41:35.095Z,4194.4
2023-05-10T15:47:10.165Z,4182.8
2023-05-10T15:52:47.124Z,4186.2
2023-05-10T15:58:23.129Z,4181.3
2023-05-10T16:03:59.036Z,4183.6
2023-05-10T16:09:41.661Z,4180.5
2023-05-10T16:15:20.575Z,4181.3
2023-05-10T16:21:04.795Z,4177.5
2023-05-10T16:26:42.449Z,4188.5
2023-05-10T16:32:20.289Z,4201.9
2023-05-10T16:37:57.388Z,4204.9
2023-05-10T16:43:33.738Z,4192.4
2023-05-10T16:49:09.083Z,4191.5
2023-05-10T16:54:44.765Z,4207.8
2023-05-10T17:00:21.137Z,4193.5
2023-05-10T17:05:57.856Z,4185.2
2023-05-10T17:11:33.321Z,4190
2023-05-10T17:17:10.312Z,4182.6
2023-05-10T17:22:45.171Z,4178
2023-05-10T17:28:21.877Z,4181.5
2023-05-10T17:33:58.571Z,4183.8
2023-05-10T17:39:40.370Z,4185.5
2023-05-10T17:45:17.788Z,4184
2023-05-10T17:50:54.481Z,4188.8
2023-05-10T17:56:32.300Z,4184.7
2023-05-10T18:02:08.098Z,4184
2023-05-10T18:07:43.522Z,4186.2
2023-05-10T18:13:20.078Z,4180
2023-05-10T18:19:02.898Z,4178.5
2023-05-10T18:24:42.149Z,4179.6
2023-05-10T18:30:20.450Z,4177.6
2023-05-10T18:35:56.689Z,4174.8
2023-05-10T18:41:31.751Z,4174.1
2023-05-10T18:47:06.994Z,4172.9
2023-05-10T18:52:43.591Z,4172.9
2023-05-10T18:58:21.858Z,4173.8
2023-05-10T19:03:57.975Z,4172.3
2023-05-10T19:09:33.689Z,4171.6
2023-05-10T19:15:10.141Z,4171.3
2023-05-10T19:20:48.070Z,4167.9
2023-05-10T19:26:25.632Z,4168.1
2023-05-10T19:32:03.630Z,4167.4
2023-05-10T19:37:40.310Z,4169.7
2023-05-10T19:43:16.934Z,4168.1
2023-05-10T19:48:53.419Z,4166.6
2023-05-10T19:54:28.859Z,4167.9
2023-05-10T20:00:06.821Z,4166.2
2023-05-10T20:05:43.077Z,4164.9
2023-05-10T20:11:19.261Z,4165.2
2023-05-10T20:16:54.815Z,4164.9
2023-05-10T20:22:30.869Z,4165.7
2023-05-10T20:28:07.711Z,4166.4
2023-05-10T20:33:44.014Z,4162.9
2023-05-10T20:39:20.168Z,4165.4
2023-05-10T20:44:56.246Z,4164.2
2023-05-10T20:50:33.090Z,4164.6
2023-05-10T20:56:09.782Z,4164.6
